sensor_id;sensor_type;location;lat;lon;timestamp;temperature;humidity
14527;DHT22;7350;51.208;4.238;2022-11-27T00:00:57;7.80;99.90
14527;DHT22;7350;51.208;4.238;2022-11-27T00:03:24;7.80;99.90
14527;DHT22;7350;51.208;4.238;2022-11-27T00:05:53;7.80;99.90
14527;DHT22;7350;51.208;4.238;2022-11-27T00:08:21;7.70;99.90
14527;DHT22;7350;51.208;4.238;2022-11-27T00:10:49;7.70;99.90
14527;DHT22;7350;51.208;4.238;2022-11-27T00:13:16;7.80;99.90
14527;DHT22;7350;51.208;4.238;2022-11-27T00:15:43;7.70;99.90
14527;DHT22;7350;51.208;4.238;2022-11-27T00:18:10;7.80;99.90
14527;DHT22;7350;51.208;4.238;2022-11-27T00:20:37;7.80;99.90
14527;DHT22;7350;51.208;4.238;2022-11-27T00:23:04;7.80;99.90
14527;DHT22;7350;51.208;4.238;2022-11-27T00:25:33;7.80;99.90
14527;DHT22;7350;51.208;4.238;2022-11-27T00:28:00;7.90;99.90
14527;DHT22;7350;51.208;4.238;2022-11-27T00:30:27;7.90;99.90
14527;DHT22;7350;51.208;4.238;2022-11-27T00:32:54;7.90;99.90
14527;DHT22;7350;51.208;4.238;2022-11-27T00:35:20;7.80;99.90
14527;DHT22;7350;51.208;4.238;2022-11-27T00:37:47;8.00;99.90
14527;DHT22;7350;51.208;4.238;2022-11-27T00:40:14;7.90;99.90
14527;DHT22;7350;51.208;4.238;2022-11-27T00:42:43;7.90;99.90
14527;DHT22;7350;51.208;4.238;2022-11-27T00:45:10;8.00;99.90
14527;DHT22;7350;51.208;4.238;2022-11-27T00:47:37;7.90;99.90
14527;DHT22;7350;51.208;4.238;2022-11-27T00:50:05;8.00;99.90
14527;DHT22;7350;51.208;4.238;2022-11-27T00:52:32;8.00;99.90
14527;DHT22;7350;51.208;4.238;2022-11-27T00:54:59;8.00;99.90
14527;DHT22;7350;51.208;4.238;2022-11-27T00:57:26;7.90;99.90
14527;DHT22;7350;51.208;4.238;2022-11-27T00:59:54;8.00;99.90
14527;DHT22;7350;51.208;4.238;2022-11-27T01:02:21;8.10;99.90
14527;DHT22;7350;51.208;4.238;2022-11-27T01:04:48;8.00;99.90
14527;DHT22;7350;51.208;4.238;2022-11-27T01:07:15;8.00;99.90
14527;DHT22;7350;51.208;4.238;2022-11-27T01:09:42;8.00;99.90
14527;DHT22;7350;51.208;4.238;2022-11-27T01:12:09;8.00;99.90
14527;DHT22;7350;51.208;4.238;2022-11-27T01:14:37;8.00;99.90
14527;DHT22;7350;51.208;4.238;2022-11-27T01:17:05;8.10;99.90
14527;DHT22;7350;51.208;4.238;2022-11-27T01:19:32;8.20;99.90
14527;DHT22;7350;51.208;4.238;2022-11-27T01:21:59;8.20;99.90
14527;DHT22;7350;51.208;4.238;2022-11-27T01:24:26;8.20;99.90
14527;DHT22;7350;51.208;4.238;2022-11-27T01:26:53;8.20;99.90
14527;DHT22;7350;51.208;4.238;2022-11-27T01:29:20;8.20;99.90
14527;DHT22;7350;51.208;4.238;2022-11-27T01:31:46;8.20;99.90
14527;DHT22;7350;51.208;4.238;2022-11-27T01:34:16;8.20;99.90
14527;DHT22;7350;51.208;4.238;2022-11-27T01:36:44;8.20;99.90
14527;DHT22;7350;51.208;4.238;2022-11-27T01:39:14;8.30;99.90
14527;DHT22;7350;51.208;4.238;2022-11-27T01:41:41;8.40;99.90
14527;DHT22;7350;51.208;4.238;2022-11-27T01:44:46;8.30;99.90
14527;DHT22;7350;51.208;4.238;2022-11-27T01:47:19;8.20;99.90
14527;DHT22;7350;51.208;4.238;2022-11-27T01:49:51;8.30;99.90
14527;DHT22;7350;51.208;4.238;2022-11-27T01:52:22;8.20;99.90
14527;DHT22;7350;51.208;4.238;2022-11-27T01:54:56;8.30;99.90
14527;DHT22;7350;51.208;4.238;2022-11-27T01:57:27;8.20;99.90
14527;DHT22;7350;51.208;4.238;2022-11-27T01:59:57;8.30;99.90
14527;DHT22;7350;51.208;4.238;2022-11-27T02:02:25;8.20;99.90
14527;DHT22;7350;51.208;4.238;2022-11-27T02:04:54;8.20;99.90
14527;DHT22;7350;51.208;4.238;2022-11-27T02:07:21;8.30;99.90
14527;DHT22;7350;51.208;4.238;2022-11-27T02:09:48;8.40;99.90
14527;DHT22;7350;51.208;4.238;2022-11-27T02:12:20;8.50;99.90
14527;DHT22;7350;51.208;4.238;2022-11-27T02:14:57;8.40;99.90
14527;DHT22;7350;51.208;4.238;2022-11-27T02:17:29;8.40;99.90
14527;DHT22;7350;51.208;4.238;2022-11-27T02:20:21;8.40;99.90
14527;DHT22;7350;51.208;4.238;2022-11-27T02:23:02;8.20;99.90
14527;DHT22;7350;51.208;4.238;2022-11-27T02:25:43;8.30;99.90
14527;DHT22;7350;51.208;4.238;2022-11-27T02:28:31;8.30;99.90
14527;DHT22;7350;51.208;4.238;2022-11-27T02:31:07;8.40;99.90
14527;DHT22;7350;51.208;4.238;2022-11-27T02:33:39;8.30;99.90
14527;DHT22;7350;51.208;4.238;2022-11-27T02:36:10;8.40;99.90
14527;DHT22;7350;51.208;4.238;2022-11-27T02:38:43;8.40;99.90
14527;DHT22;7350;51.208;4.238;2022-11-27T02:41:14;8.30;99.90
14527;DHT22;7350;51.208;4.238;2022-11-27T02:43:45;8.30;99.90
14527;DHT22;7350;51.208;4.238;2022-11-27T02:46:16;8.30;99.90
14527;DHT22;7350;51.208;4.238;2022-11-27T02:48:46;8.40;99.90
14527;DHT22;7350;51.208;4.238;2022-11-27T02:51:14;8.40;99.90
14527;DHT22;7350;51.208;4.238;2022-11-27T02:53:47;8.30;99.90
14527;DHT22;7350;51.208;4.238;2022-11-27T02:56:19;8.30;99.90
14527;DHT22;7350;51.208;4.238;2022-11-27T02:58:49;8.30;99.90
14527;DHT22;7350;51.208;4.238;2022-11-27T03:01:21;8.30;99.90
14527;DHT22;7350;51.208;4.238;2022-11-27T03:03:52;8.40;99.90
14527;DHT22;7350;51.208;4.238;2022-11-27T03:06:24;8.50;99.90
14527;DHT22;7350;51.208;4.238;2022-11-27T03:08:55;8.40;99.90
14527;DHT22;7350;51.208;4.238;2022-11-27T03:11:23;8.30;99.90
14527;DHT22;7350;51.208;4.238;2022-11-27T03:13:53;8.40;99.90
14527;DHT22;7350;51.208;4.238;2022-11-27T03:16:29;8.30;99.90
14527;DHT22;7350;51.208;4.238;2022-11-27T03:19:08;8.40;99.90
14527;DHT22;7350;51.208;4.238;2022-11-27T03:21:39;8.50;99.90
14527;DHT22;7350;51.208;4.238;2022-11-27T03:24:07;8.40;99.90
14527;DHT22;7350;51.208;4.238;2022-11-27T03:26:35;8.50;99.90
14527;DHT22;7350;51.208;4.238;2022-11-27T03:29:05;8.40;99.90
14527;DHT22;7350;51.208;4.238;2022-11-27T03:31:34;8.40;99.90
14527;DHT22;7350;51.208;4.238;2022-11-27T03:34:02;8.40;99.90
14527;DHT22;7350;51.208;4.238;2022-11-27T03:36:29;8.50;99.90
14527;DHT22;7350;51.208;4.238;2022-11-27T03:38:55;8.40;99.90
14527;DHT22;7350;51.208;4.238;2022-11-27T03:41:26;8.30;99.90
14527;DHT22;7350;51.208;4.238;2022-11-27T03:44:03;8.20;99.90
14527;DHT22;7350;51.208;4.238;2022-11-27T03:46:41;8.30;99.90
14527;DHT22;7350;51.208;4.238;2022-11-27T03:49:18;8.30;99.90
14527;DHT22;7350;51.208;4.238;2022-11-27T03:51:53;8.30;99.90
14527;DHT22;7350;51.208;4.238;2022-11-27T03:54:31;8.30;99.90
14527;DHT22;7350;51.208;4.238;2022-11-27T03:57:07;8.30;99.90
14527;DHT22;7350;51.208;4.238;2022-11-27T03:59:41;8.30;99.90
14527;DHT22;7350;51.208;4.238;2022-11-27T04:02:13;8.20;99.90
14527;DHT22;7350;51.208;4.238;2022-11-27T04:04:40;8.20;99.90
14527;DHT22;7350;51.208;4.238;2022-11-27T04:07:08;8.20;99.90
14527;DHT22;7350;51.208;4.238;2022-11-27T04:09:41;8.30;99.90
14527;DHT22;7350;51.208;4.238;2022-11-27T04:12:08;8.30;99.90
14527;DHT22;7350;51.208;4.238;2022-11-27T04:14:34;8.30;99.90
14527;DHT22;7350;51.208;4.238;2022-11-27T04:17:01;8.30;99.90
14527;DHT22;7350;51.208;4.238;2022-11-27T04:19:29;8.10;99.90
14527;DHT22;7350;51.208;4.238;2022-11-27T04:21:56;8.20;99.90
14527;DHT22;7350;51.208;4.238;2022-11-27T04:24:23;8.20;99.90
14527;DHT22;7350;51.208;4.238;2022-11-27T04:26:50;8.20;99.90
14527;DHT22;7350;51.208;4.238;2022-11-27T04:29:17;8.10;99.90
14527;DHT22;7350;51.208;4.238;2022-11-27T04:31:44;8.00;99.90
14527;DHT22;7350;51.208;4.238;2022-11-27T04:34:11;8.00;99.90
14527;DHT22;7350;51.208;4.238;2022-11-27T04:36:39;8.00;99.90
14527;DHT22;7350;51.208;4.238;2022-11-27T04:39:07;8.00;99.90
14527;DHT22;7350;51.208;4.238;2022-11-27T04:41:34;8.00;99.90
14527;DHT22;7350;51.208;4.238;2022-11-27T04:44:00;8.20;99.90
14527;DHT22;7350;51.208;4.238;2022-11-27T04:46:27;8.10;99.90
14527;DHT22;7350;51.208;4.238;2022-11-27T04:48:54;7.90;99.90
14527;DHT22;7350;51.208;4.238;2022-11-27T04:51:21;8.00;99.90
14527;DHT22;7350;51.208;4.238;2022-11-27T04:53:50;8.00;99.90
14527;DHT22;7350;51.208;4.238;2022-11-27T04:56:17;8.10;99.90
14527;DHT22;7350;51.208;4.238;2022-11-27T04:58:44;8.10;99.90
14527;DHT22;7350;51.208;4.238;2022-11-27T05:01:10;8.10;99.90
14527;DHT22;7350;51.208;4.238;2022-11-27T05:03:38;8.00;99.90
14527;DHT22;7350;51.208;4.238;2022-11-27T05:06:05;8.00;99.90
14527;DHT22;7350;51.208;4.238;2022-11-27T05:08:32;8.10;99.90
14527;DHT22;7350;51.208;4.238;2022-11-27T05:11:02;8.20;99.90
14527;DHT22;7350;51.208;4.238;2022-11-27T05:13:30;8.30;99.90
14527;DHT22;7350;51.208;4.238;2022-11-27T05:15:57;8.20;99.90
14527;DHT22;7350;51.208;4.238;2022-11-27T05:18:24;7.90;99.90
14527;DHT22;7350;51.208;4.238;2022-11-27T05:20:55;8.00;99.90
14527;DHT22;7350;51.208;4.238;2022-11-27T05:23:23;7.90;99.90
14527;DHT22;7350;51.208;4.238;2022-11-27T05:25:50;7.90;99.90
14527;DHT22;7350;51.208;4.238;2022-11-27T05:28:19;7.90;99.90
14527;DHT22;7350;51.208;4.238;2022-11-27T05:30:46;7.90;99.90
14527;DHT22;7350;51.208;4.238;2022-11-27T05:33:13;7.90;99.90
14527;DHT22;7350;51.208;4.238;2022-11-27T05:35:41;7.90;99.90
14527;DHT22;7350;51.208;4.238;2022-11-27T05:38:08;7.80;99.90
14527;DHT22;7350;51.208;4.238;2022-11-27T05:40:35;7.80;99.90
14527;DHT22;7350;51.208;4.238;2022-11-27T05:43:02;7.80;99.90
14527;DHT22;7350;51.208;4.238;2022-11-27T05:45:30;7.80;99.90
14527;DHT22;7350;51.208;4.238;2022-11-27T05:47:57;7.80;99.90
14527;DHT22;7350;51.208;4.238;2022-11-27T05:50:24;7.80;99.90
14527;DHT22;7350;51.208;4.238;2022-11-27T05:52:51;7.70;99.90
14527;DHT22;7350;51.208;4.238;2022-11-27T05:55:18;7.70;99.90
14527;DHT22;7350;51.208;4.238;2022-11-27T05:57:45;7.80;99.90
14527;DHT22;7350;51.208;4.238;2022-11-27T06:00:13;7.90;99.90
14527;DHT22;7350;51.208;4.238;2022-11-27T06:02:41;7.80;99.90
14527;DHT22;7350;51.208;4.238;2022-11-27T06:05:08;7.90;99.90
14527;DHT22;7350;51.208;4.238;2022-11-27T06:07:35;7.80;99.90
14527;DHT22;7350;51.208;4.238;2022-11-27T06:10:03;7.70;99.90
14527;DHT22;7350;51.208;4.238;2022-11-27T06:12:30;7.70;99.90
14527;DHT22;7350;51.208;4.238;2022-11-27T06:14:58;7.80;99.90
14527;DHT22;7350;51.208;4.238;2022-11-27T06:17:24;7.80;99.90
14527;DHT22;7350;51.208;4.238;2022-11-27T06:19:53;7.80;99.90
14527;DHT22;7350;51.208;4.238;2022-11-27T06:22:20;7.80;99.90
14527;DHT22;7350;51.208;4.238;2022-11-27T06:24:47;7.70;99.90
14527;DHT22;7350;51.208;4.238;2022-11-27T06:27:13;7.70;99.90
14527;DHT22;7350;51.208;4.238;2022-11-27T06:29:40;7.70;99.90
14527;DHT22;7350;51.208;4.238;2022-11-27T06:32:07;7.80;99.90
14527;DHT22;7350;51.208;4.238;2022-11-27T06:34:34;7.90;99.90
14527;DHT22;7350;51.208;4.238;2022-11-27T06:37:02;7.80;99.90
14527;DHT22;7350;51.208;4.238;2022-11-27T06:39:30;7.80;99.90
14527;DHT22;7350;51.208;4.238;2022-11-27T06:41:57;7.80;99.90
14527;DHT22;7350;51.208;4.238;2022-11-27T06:44:24;7.70;99.90
14527;DHT22;7350;51.208;4.238;2022-11-27T06:46:52;7.70;99.90
14527;DHT22;7350;51.208;4.238;2022-11-27T06:49:19;7.80;99.90
14527;DHT22;7350;51.208;4.238;2022-11-27T06:51:47;7.90;99.90
14527;DHT22;7350;51.208;4.238;2022-11-27T06:54:16;8.10;99.90
14527;DHT22;7350;51.208;4.238;2022-11-27T06:56:43;8.00;99.90
14527;DHT22;7350;51.208;4.238;2022-11-27T06:59:10;8.00;99.90
14527;DHT22;7350;51.208;4.238;2022-11-27T07:01:39;8.00;99.90
14527;DHT22;7350;51.208;4.238;2022-11-27T07:04:07;8.10;99.90
14527;DHT22;7350;51.208;4.238;2022-11-27T07:06:34;8.10;99.90
14527;DHT22;7350;51.208;4.238;2022-11-27T07:09:01;8.20;99.90
14527;DHT22;7350;51.208;4.238;2022-11-27T07:11:30;8.20;99.90
14527;DHT22;7350;51.208;4.238;2022-11-27T07:13:58;8.10;99.90
14527;DHT22;7350;51.208;4.238;2022-11-27T07:16:26;8.20;99.90
14527;DHT22;7350;51.208;4.238;2022-11-27T07:18:55;8.10;99.90
14527;DHT22;7350;51.208;4.238;2022-11-27T07:21:24;8.10;99.90
14527;DHT22;7350;51.208;4.238;2022-11-27T07:23:51;8.20;99.90
14527;DHT22;7350;51.208;4.238;2022-11-27T07:26:20;8.30;99.90
14527;DHT22;7350;51.208;4.238;2022-11-27T07:28:48;8.20;99.90
14527;DHT22;7350;51.208;4.238;2022-11-27T07:31:17;8.20;99.90
14527;DHT22;7350;51.208;4.238;2022-11-27T07:33:44;8.20;99.90
14527;DHT22;7350;51.208;4.238;2022-11-27T07:36:13;8.20;99.90
14527;DHT22;7350;51.208;4.238;2022-11-27T07:38:42;8.00;99.90
14527;DHT22;7350;51.208;4.238;2022-11-27T07:41:10;8.10;99.90
14527;DHT22;7350;51.208;4.238;2022-11-27T07:43:37;8.00;99.90
14527;DHT22;7350;51.208;4.238;2022-11-27T07:46:07;8.00;99.90
14527;DHT22;7350;51.208;4.238;2022-11-27T07:48:34;8.00;99.90
14527;DHT22;7350;51.208;4.238;2022-11-27T07:51:01;8.10;99.90
14527;DHT22;7350;51.208;4.238;2022-11-27T07:53:30;8.00;99.90
14527;DHT22;7350;51.208;4.238;2022-11-27T07:55:58;8.00;99.90
14527;DHT22;7350;51.208;4.238;2022-11-27T07:58:25;8.00;99.90
14527;DHT22;7350;51.208;4.238;2022-11-27T08:00:52;8.00;99.90
14527;DHT22;7350;51.208;4.238;2022-11-27T08:03:20;7.90;99.90
14527;DHT22;7350;51.208;4.238;2022-11-27T08:05:47;8.00;99.90
14527;DHT22;7350;51.208;4.238;2022-11-27T08:08:14;7.90;99.90
14527;DHT22;7350;51.208;4.238;2022-11-27T08:10:41;7.90;99.90
14527;DHT22;7350;51.208;4.238;2022-11-27T08:13:08;7.90;99.90
14527;DHT22;7350;51.208;4.238;2022-11-27T08:15:36;7.90;99.90
14527;DHT22;7350;51.208;4.238;2022-11-27T08:18:03;8.00;99.90
14527;DHT22;7350;51.208;4.238;2022-11-27T08:20:31;8.10;99.90
14527;DHT22;7350;51.208;4.238;2022-11-27T08:22:58;8.00;99.90
14527;DHT22;7350;51.208;4.238;2022-11-27T08:25:25;8.10;99.90
14527;DHT22;7350;51.208;4.238;2022-11-27T08:27:52;8.20;99.90
14527;DHT22;7350;51.208;4.238;2022-11-27T08:30:19;8.30;99.90
14527;DHT22;7350;51.208;4.238;2022-11-27T08:32:48;8.20;99.90
14527;DHT22;7350;51.208;4.238;2022-11-27T08:35:15;8.20;99.90
14527;DHT22;7350;51.208;4.238;2022-11-27T08:37:43;8.20;99.90
14527;DHT22;7350;51.208;4.238;2022-11-27T08:40:11;8.20;99.90
14527;DHT22;7350;51.208;4.238;2022-11-27T08:42:38;8.10;99.90
14527;DHT22;7350;51.208;4.238;2022-11-27T08:45:05;8.10;99.90
14527;DHT22;7350;51.208;4.238;2022-11-27T08:47:32;8.20;99.90
14527;DHT22;7350;51.208;4.238;2022-11-27T08:49:59;8.20;99.90
14527;DHT22;7350;51.208;4.238;2022-11-27T08:52:26;8.20;99.90
14527;DHT22;7350;51.208;4.238;2022-11-27T08:54:54;8.20;99.90
14527;DHT22;7350;51.208;4.238;2022-11-27T08:57:21;8.40;99.90
14527;DHT22;7350;51.208;4.238;2022-11-27T08:59:48;8.50;99.90
14527;DHT22;7350;51.208;4.238;2022-11-27T09:02:16;8.50;99.90
14527;DHT22;7350;51.208;4.238;2022-11-27T09:04:43;8.50;99.90
14527;DHT22;7350;51.208;4.238;2022-11-27T09:07:10;8.60;99.90
14527;DHT22;7350;51.208;4.238;2022-11-27T09:09:39;8.60;99.90
14527;DHT22;7350;51.208;4.238;2022-11-27T09:12:07;8.70;99.90
14527;DHT22;7350;51.208;4.238;2022-11-27T09:14:34;8.50;99.90
14527;DHT22;7350;51.208;4.238;2022-11-27T09:17:01;8.50;99.90
14527;DHT22;7350;51.208;4.238;2022-11-27T09:19:28;8.50;99.90
14527;DHT22;7350;51.208;4.238;2022-11-27T09:21:55;8.60;99.90
14527;DHT22;7350;51.208;4.238;2022-11-27T09:24:22;8.70;99.90
14527;DHT22;7350;51.208;4.238;2022-11-27T09:26:49;8.60;99.90
14527;DHT22;7350;51.208;4.238;2022-11-27T09:29:17;8.60;99.90
14527;DHT22;7350;51.208;4.238;2022-11-27T09:31:44;8.70;99.90
14527;DHT22;7350;51.208;4.238;2022-11-27T09:34:11;8.70;99.90
14527;DHT22;7350;51.208;4.238;2022-11-27T09:36:39;8.70;99.90
14527;DHT22;7350;51.208;4.238;2022-11-27T09:39:05;8.60;99.90
14527;DHT22;7350;51.208;4.238;2022-11-27T09:41:40;8.50;99.90
14527;DHT22;7350;51.208;4.238;2022-11-27T09:44:30;8.50;99.90
14527;DHT22;7350;51.208;4.238;2022-11-27T09:47:00;8.80;99.90
14527;DHT22;7350;51.208;4.238;2022-11-27T09:49:35;8.90;99.90
14527;DHT22;7350;51.208;4.238;2022-11-27T09:52:09;9.00;99.90
14527;DHT22;7350;51.208;4.238;2022-11-27T09:54:42;8.90;99.90
14527;DHT22;7350;51.208;4.238;2022-11-27T09:57:14;8.70;99.90
14527;DHT22;7350;51.208;4.238;2022-11-27T09:59:47;8.80;99.90
14527;DHT22;7350;51.208;4.238;2022-11-27T10:02:16;9.00;99.90
14527;DHT22;7350;51.208;4.238;2022-11-27T10:04:44;8.90;99.90
14527;DHT22;7350;51.208;4.238;2022-11-27T10:07:19;8.80;99.90
14527;DHT22;7350;51.208;4.238;2022-11-27T10:10:03;8.60;99.90
14527;DHT22;7350;51.208;4.238;2022-11-27T10:12:42;8.60;99.90
14527;DHT22;7350;51.208;4.238;2022-11-27T10:15:17;8.60;99.90
14527;DHT22;7350;51.208;4.238;2022-11-27T10:17:48;8.70;99.90
14527;DHT22;7350;51.208;4.238;2022-11-27T10:20:24;8.50;99.90
14527;DHT22;7350;51.208;4.238;2022-11-27T10:22:58;8.50;99.90
14527;DHT22;7350;51.208;4.238;2022-11-27T10:25:29;8.60;99.90
14527;DHT22;7350;51.208;4.238;2022-11-27T10:28:11;8.60;99.90
14527;DHT22;7350;51.208;4.238;2022-11-27T10:30:48;8.60;99.90
14527;DHT22;7350;51.208;4.238;2022-11-27T10:33:20;8.60;99.90
14527;DHT22;7350;51.208;4.238;2022-11-27T10:35:48;8.70;99.90
14527;DHT22;7350;51.208;4.238;2022-11-27T10:38:18;8.60;99.90
14527;DHT22;7350;51.208;4.238;2022-11-27T10:40:51;8.60;99.90
14527;DHT22;7350;51.208;4.238;2022-11-27T10:43:20;8.60;99.90
14527;DHT22;7350;51.208;4.238;2022-11-27T10:45:51;8.70;99.90
14527;DHT22;7350;51.208;4.238;2022-11-27T10:48:19;8.80;99.90
14527;DHT22;7350;51.208;4.238;2022-11-27T10:50:47;8.90;99.90
14527;DHT22;7350;51.208;4.238;2022-11-27T10:53:21;8.90;99.90
14527;DHT22;7350;51.208;4.238;2022-11-27T10:55:58;9.10;99.90
14527;DHT22;7350;51.208;4.238;2022-11-27T10:58:32;9.30;99.90
14527;DHT22;7350;51.208;4.238;2022-11-27T11:01:03;9.20;99.90
14527;DHT22;7350;51.208;4.238;2022-11-27T11:03:31;9.30;99.90
14527;DHT22;7350;51.208;4.238;2022-11-27T11:06:01;9.40;99.90
14527;DHT22;7350;51.208;4.238;2022-11-27T11:08:30;9.50;99.90
14527;DHT22;7350;51.208;4.238;2022-11-27T11:11:00;9.40;99.90
14527;DHT22;7350;51.208;4.238;2022-11-27T11:13:28;9.30;99.90
14527;DHT22;7350;51.208;4.238;2022-11-27T11:15:58;9.30;99.90
14527;DHT22;7350;51.208;4.238;2022-11-27T11:18:28;9.40;99.90
14527;DHT22;7350;51.208;4.238;2022-11-27T11:20:57;9.30;99.90
14527;DHT22;7350;51.208;4.238;2022-11-27T11:23:28;9.30;99.90
14527;DHT22;7350;51.208;4.238;2022-11-27T11:25:58;9.30;99.90
14527;DHT22;7350;51.208;4.238;2022-11-27T11:28:26;9.50;99.90
14527;DHT22;7350;51.208;4.238;2022-11-27T11:30:58;9.50;99.90
14527;DHT22;7350;51.208;4.238;2022-11-27T11:33:27;9.40;99.90
14527;DHT22;7350;51.208;4.238;2022-11-27T11:36:04;9.40;99.90
14527;DHT22;7350;51.208;4.238;2022-11-27T11:38:33;9.30;99.90
14527;DHT22;7350;51.208;4.238;2022-11-27T11:41:02;9.20;99.90
14527;DHT22;7350;51.208;4.238;2022-11-27T11:43:31;9.20;99.90
14527;DHT22;7350;51.208;4.238;2022-11-27T11:46:16;9.30;99.90
14527;DHT22;7350;51.208;4.238;2022-11-27T11:48:54;9.60;99.90
14527;DHT22;7350;51.208;4.238;2022-11-27T11:51:36;9.50;99.90
14527;DHT22;7350;51.208;4.238;2022-11-27T11:54:15;9.40;99.90
14527;DHT22;7350;51.208;4.238;2022-11-27T11:56:47;9.40;99.90
14527;DHT22;7350;51.208;4.238;2022-11-27T11:59:22;9.60;99.90
14527;DHT22;7350;51.208;4.238;2022-11-27T12:02:39;9.50;99.90
14527;DHT22;7350;51.208;4.238;2022-11-27T12:05:25;9.20;99.90
14527;DHT22;7350;51.208;4.238;2022-11-27T12:08:03;9.10;99.90
14527;DHT22;7350;51.208;4.238;2022-11-27T12:10:41;9.00;99.90
14527;DHT22;7350;51.208;4.238;2022-11-27T12:13:17;9.10;99.90
14527;DHT22;7350;51.208;4.238;2022-11-27T12:15:52;9.30;99.90
14527;DHT22;7350;51.208;4.238;2022-11-27T12:18:25;9.40;99.90
14527;DHT22;7350;51.208;4.238;2022-11-27T12:21:05;9.50;99.90
14527;DHT22;7350;51.208;4.238;2022-11-27T12:23:56;9.50;99.90
14527;DHT22;7350;51.208;4.238;2022-11-27T12:26:30;9.60;99.90
14527;DHT22;7350;51.208;4.238;2022-11-27T12:32:31;9.60;99.90
14527;DHT22;7350;51.208;4.238;2022-11-27T12:35:14;9.50;99.90
14527;DHT22;7350;51.208;4.238;2022-11-27T12:37:51;9.40;99.90
14527;DHT22;7350;51.208;4.238;2022-11-27T12:40:34;9.50;99.90
14527;DHT22;7350;51.208;4.238;2022-11-27T12:43:12;9.60;99.90
14527;DHT22;7350;51.208;4.238;2022-11-27T12:45:46;9.60;99.90
14527;DHT22;7350;51.208;4.238;2022-11-27T12:48:18;9.50;99.90
14527;DHT22;7350;51.208;4.238;2022-11-27T12:50:50;9.40;99.90
14527;DHT22;7350;51.208;4.238;2022-11-27T12:53:22;9.60;99.90
14527;DHT22;7350;51.208;4.238;2022-11-27T12:55:59;9.60;99.90
14527;DHT22;7350;51.208;4.238;2022-11-27T12:58:31;9.60;99.90
14527;DHT22;7350;51.208;4.238;2022-11-27T13:01:04;9.70;99.90
14527;DHT22;7350;51.208;4.238;2022-11-27T13:03:36;9.60;99.90
14527;DHT22;7350;51.208;4.238;2022-11-27T13:06:09;9.80;99.90
14527;DHT22;7350;51.208;4.238;2022-11-27T13:08:44;9.80;99.90
14527;DHT22;7350;51.208;4.238;2022-11-27T13:11:14;9.70;99.90
14527;DHT22;7350;51.208;4.238;2022-11-27T13:13:46;9.80;99.90
14527;DHT22;7350;51.208;4.238;2022-11-27T13:16:18;9.90;99.90
14527;DHT22;7350;51.208;4.238;2022-11-27T13:18:50;9.70;99.90
14527;DHT22;7350;51.208;4.238;2022-11-27T13:21:22;9.60;99.90
14527;DHT22;7350;51.208;4.238;2022-11-27T13:23:51;9.60;99.90
14527;DHT22;7350;51.208;4.238;2022-11-27T13:26:21;9.70;99.90
14527;DHT22;7350;51.208;4.238;2022-11-27T13:28:51;9.60;99.90
14527;DHT22;7350;51.208;4.238;2022-11-27T13:31:22;9.50;99.90
14527;DHT22;7350;51.208;4.238;2022-11-27T13:33:50;9.40;99.90
14527;DHT22;7350;51.208;4.238;2022-11-27T13:36:19;9.30;99.90
14527;DHT22;7350;51.208;4.238;2022-11-27T13:38:54;9.50;99.90
14527;DHT22;7350;51.208;4.238;2022-11-27T13:41:31;9.50;99.90
14527;DHT22;7350;51.208;4.238;2022-11-27T13:43:58;9.30;99.90
14527;DHT22;7350;51.208;4.238;2022-11-27T13:46:27;9.30;99.90
14527;DHT22;7350;51.208;4.238;2022-11-27T13:48:56;9.40;99.90
14527;DHT22;7350;51.208;4.238;2022-11-27T13:51:27;9.20;99.90
14527;DHT22;7350;51.208;4.238;2022-11-27T13:54:08;9.20;99.90
14527;DHT22;7350;51.208;4.238;2022-11-27T13:56:35;9.20;99.90
14527;DHT22;7350;51.208;4.238;2022-11-27T13:59:12;9.20;99.90
14527;DHT22;7350;51.208;4.238;2022-11-27T14:01:54;9.30;99.90
14527;DHT22;7350;51.208;4.238;2022-11-27T14:04:22;9.30;99.90
14527;DHT22;7350;51.208;4.238;2022-11-27T14:06:55;9.30;99.90
14527;DHT22;7350;51.208;4.238;2022-11-27T14:09:37;9.30;99.90
14527;DHT22;7350;51.208;4.238;2022-11-27T14:12:16;9.60;99.90
14527;DHT22;7350;51.208;4.238;2022-11-27T14:14:57;9.50;99.90
14527;DHT22;7350;51.208;4.238;2022-11-27T14:17:32;9.30;99.90
14527;DHT22;7350;51.208;4.238;2022-11-27T14:20:03;9.30;99.90
14527;DHT22;7350;51.208;4.238;2022-11-27T14:22:44;9.40;99.90
14527;DHT22;7350;51.208;4.238;2022-11-27T14:25:19;9.50;99.90
14527;DHT22;7350;51.208;4.238;2022-11-27T14:27:47;9.20;99.90
14527;DHT22;7350;51.208;4.238;2022-11-27T14:30:23;9.10;99.90
14527;DHT22;7350;51.208;4.238;2022-11-27T14:32:50;9.30;99.90
14527;DHT22;7350;51.208;4.238;2022-11-27T14:35:21;9.40;99.90
14527;DHT22;7350;51.208;4.238;2022-11-27T14:37:48;9.30;99.90
14527;DHT22;7350;51.208;4.238;2022-11-27T14:40:21;9.40;99.90
14527;DHT22;7350;51.208;4.238;2022-11-27T14:42:48;9.40;99.90
14527;DHT22;7350;51.208;4.238;2022-11-27T14:45:17;9.50;99.90
14527;DHT22;7350;51.208;4.238;2022-11-27T14:47:47;9.50;99.90
14527;DHT22;7350;51.208;4.238;2022-11-27T14:50:15;9.50;99.90
14527;DHT22;7350;51.208;4.238;2022-11-27T14:52:43;9.60;99.90
14527;DHT22;7350;51.208;4.238;2022-11-27T14:55:13;9.60;99.90
14527;DHT22;7350;51.208;4.238;2022-11-27T14:57:42;9.50;99.90
14527;DHT22;7350;51.208;4.238;2022-11-27T15:00:15;9.60;99.90
14527;DHT22;7350;51.208;4.238;2022-11-27T15:02:43;9.50;99.90
14527;DHT22;7350;51.208;4.238;2022-11-27T15:05:18;9.50;99.90
14527;DHT22;7350;51.208;4.238;2022-11-27T15:07:46;9.50;99.90
14527;DHT22;7350;51.208;4.238;2022-11-27T15:10:23;9.50;99.90
14527;DHT22;7350;51.208;4.238;2022-11-27T15:12:54;9.60;99.90
14527;DHT22;7350;51.208;4.238;2022-11-27T15:15:23;9.50;99.90
14527;DHT22;7350;51.208;4.238;2022-11-27T15:17:53;9.50;99.90
14527;DHT22;7350;51.208;4.238;2022-11-27T15:20:24;9.40;99.90
14527;DHT22;7350;51.208;4.238;2022-11-27T15:22:53;9.50;99.90
14527;DHT22;7350;51.208;4.238;2022-11-27T15:25:35;9.50;99.90
14527;DHT22;7350;51.208;4.238;2022-11-27T15:28:28;9.30;99.90
14527;DHT22;7350;51.208;4.238;2022-11-27T15:30:56;9.40;99.90
14527;DHT22;7350;51.208;4.238;2022-11-27T15:33:24;9.30;99.90
14527;DHT22;7350;51.208;4.238;2022-11-27T15:35:52;9.30;99.90
14527;DHT22;7350;51.208;4.238;2022-11-27T15:38:19;9.40;99.90
14527;DHT22;7350;51.208;4.238;2022-11-27T15:40:56;9.50;99.90
14527;DHT22;7350;51.208;4.238;2022-11-27T15:43:25;9.50;99.90
14527;DHT22;7350;51.208;4.238;2022-11-27T15:45:52;9.50;99.90
14527;DHT22;7350;51.208;4.238;2022-11-27T15:48:20;9.40;99.90
14527;DHT22;7350;51.208;4.238;2022-11-27T15:50:48;9.40;99.90
14527;DHT22;7350;51.208;4.238;2022-11-27T15:53:15;9.30;99.90
14527;DHT22;7350;51.208;4.238;2022-11-27T15:55:42;9.30;99.90
14527;DHT22;7350;51.208;4.238;2022-11-27T15:58:08;9.40;99.90
14527;DHT22;7350;51.208;4.238;2022-11-27T16:00:37;9.30;99.90
14527;DHT22;7350;51.208;4.238;2022-11-27T16:03:04;9.30;99.90
14527;DHT22;7350;51.208;4.238;2022-11-27T16:05:31;9.40;99.90
14527;DHT22;7350;51.208;4.238;2022-11-27T16:07:58;9.50;99.90
14527;DHT22;7350;51.208;4.238;2022-11-27T16:10:25;9.40;99.90
14527;DHT22;7350;51.208;4.238;2022-11-27T16:12:52;9.40;99.90
14527;DHT22;7350;51.208;4.238;2022-11-27T16:15:19;9.30;99.90
14527;DHT22;7350;51.208;4.238;2022-11-27T16:17:48;9.30;99.90
14527;DHT22;7350;51.208;4.238;2022-11-27T16:20:15;9.30;99.90
14527;DHT22;7350;51.208;4.238;2022-11-27T16:22:42;9.30;99.90
14527;DHT22;7350;51.208;4.238;2022-11-27T16:25:09;9.50;99.90